sensor_id;sensor_type;location;lat;lon;timestamp;pressure;altitude;pressure_sealevel;temperature;humidity
16690;BME280;8458;52.220;9.884;2023-01-20T00:00:42;100174.63;;;0.65;98.43
16690;BME280;8458;52.220;9.884;2023-01-20T00:03:09;100171.28;;;0.63;98.70
16690;BME280;8458;52.220;9.884;2023-01-20T00:05:36;100178.00;;;0.53;98.58
16690;BME280;8458;52.220;9.884;2023-01-20T00:08:03;100179.69;;;0.55;99.09
16690;BME280;8458;52.220;9.884;2023-01-20T00:10:30;100184.75;;;0.58;98.89
16690;BME280;8458;52.220;9.884;2023-01-20T00:12:56;100188.28;;;0.58;98.97
16690;BME280;8458;52.220;9.884;2023-01-20T00:15:23;100195.22;;;0.61;99.26
16690;BME280;8458;52.220;9.884;2023-01-20T00:17:49;100195.22;;;0.67;98.82
16690;BME280;8458;52.220;9.884;2023-01-20T00:20:16;100203.19;;;0.69;99.19
16690;BME280;8458;52.220;9.884;2023-01-20T00:22:44;100206.97;;;0.68;98.56
16690;BME280;8458;52.220;9.884;2023-01-20T00:25:10;100201.53;;;0.75;98.68
16690;BME280;8458;52.220;9.884;2023-01-20T00:27:37;100201.91;;;0.78;98.65
16690;BME280;8458;52.220;9.884;2023-01-20T00:30:04;100205.25;;;0.80;98.37
16690;BME280;8458;52.220;9.884;2023-01-20T00:32:35;100212.00;;;0.84;97.71
16690;BME280;8458;52.220;9.884;2023-01-20T00:35:02;100214.50;;;0.86;97.21
16690;BME280;8458;52.220;9.884;2023-01-20T00:37:28;100218.28;;;0.78;96.69
16690;BME280;8458;52.220;9.884;2023-01-20T00:39:56;100225.44;;;0.79;97.04
16690;BME280;8458;52.220;9.884;2023-01-20T00:42:22;100229.63;;;0.75;97.05
16690;BME280;8458;52.220;9.884;2023-01-20T00:44:49;100224.19;;;0.62;97.30
16690;BME280;8458;52.220;9.884;2023-01-20T00:47:15;100220.63;;;0.55;97.08
16690;BME280;8458;52.220;9.884;2023-01-20T00:49:45;100227.13;;;0.40;97.91
16690;BME280;8458;52.220;9.884;2023-01-20T00:52:11;100233.22;;;0.42;98.59
16690;BME280;8458;52.220;9.884;2023-01-20T00:54:38;100232.97;;;0.37;99.20
16690;BME280;8458;52.220;9.884;2023-01-20T00:57:06;100233.00;;;0.30;99.36
16690;BME280;8458;52.220;9.884;2023-01-20T00:59:32;100236.53;;;0.31;99.68
16690;BME280;8458;52.220;9.884;2023-01-20T01:01:59;100241.59;;;0.27;99.73
16690;BME280;8458;52.220;9.884;2023-01-20T01:04:25;100229.44;;;0.37;100.00
16690;BME280;8458;52.220;9.884;2023-01-20T01:06:51;100233.41;;;0.34;100.00
16690;BME280;8458;52.220;9.884;2023-01-20T01:09:18;100237.41;;;0.31;100.00
16690;BME280;8458;52.220;9.884;2023-01-20T01:11:45;100250.19;;;0.31;100.00
16690;BME280;8458;52.220;9.884;2023-01-20T01:14:13;100246.22;;;0.27;100.00
16690;BME280;8458;52.220;9.884;2023-01-20T01:16:40;100249.78;;;0.27;100.00
16690;BME280;8458;52.220;9.884;2023-01-20T01:19:06;100255.63;;;0.31;100.00
16690;BME280;8458;52.220;9.884;2023-01-20T01:21:33;100255.00;;;0.29;100.00
16690;BME280;8458;52.220;9.884;2023-01-20T01:24:00;100256.72;;;0.30;100.00
16690;BME280;8458;52.220;9.884;2023-01-20T01:26:27;100263.19;;;0.29;100.00
16690;BME280;8458;52.220;9.884;2023-01-20T01:28:53;100263.19;;;0.22;100.00
16690;BME280;8458;52.220;9.884;2023-01-20T01:31:21;100262.16;;;0.30;100.00
16690;BME280;8458;52.220;9.884;2023-01-20T01:33:48;100259.44;;;0.30;100.00
16690;BME280;8458;52.220;9.884;2023-01-20T01:36:15;100264.66;;;0.25;100.00
16690;BME280;8458;52.220;9.884;2023-01-20T01:38:43;100258.56;;;0.23;100.00
16690;BME280;8458;52.220;9.884;2023-01-20T01:41:10;100261.91;;;0.25;100.00
16690;BME280;8458;52.220;9.884;2023-01-20T01:43:38;100272.81;;;0.25;100.00
16690;BME280;8458;52.220;9.884;2023-01-20T01:46:05;100273.50;;;0.27;100.00
16690;BME280;8458;52.220;9.884;2023-01-20T01:48:37;100268.66;;;0.29;99.04
16690;BME280;8458;52.220;9.884;2023-01-20T01:51:08;100276.22;;;0.27;98.93
16690;BME280;8458;52.220;9.884;2023-01-20T01:53:41;100269.69;;;0.28;98.71
16690;BME280;8458;52.220;9.884;2023-01-20T01:56:09;100274.94;;;0.29;98.36
16690;BME280;8458;52.220;9.884;2023-01-20T01:58:39;100269.50;;;0.36;98.97
16690;BME280;8458;52.220;9.884;2023-01-20T02:01:07;100276.63;;;0.37;98.82
16690;BME280;8458;52.220;9.884;2023-01-20T02:03:43;100280.84;;;0.46;98.24
16690;BME280;8458;52.220;9.884;2023-01-20T02:06:14;100278.31;;;0.38;97.74
16690;BME280;8458;52.220;9.884;2023-01-20T02:08:41;100278.72;;;0.42;97.41
16690;BME280;8458;52.220;9.884;2023-01-20T02:11:08;100285.06;;;0.42;97.42
16690;BME280;8458;52.220;9.884;2023-01-20T02:13:34;100284.59;;;0.39;97.18
16690;BME280;8458;52.220;9.884;2023-01-20T02:16:09;100287.38;;;0.45;96.81
16690;BME280;8458;52.220;9.884;2023-01-20T02:18:55;100285.88;;;0.49;97.06
16690;BME280;8458;52.220;9.884;2023-01-20T02:21:53;100290.72;;;0.47;96.49
16690;BME280;8458;52.220;9.884;2023-01-20T02:24:37;100293.66;;;0.52;96.33
16690;BME280;8458;52.220;9.884;2023-01-20T02:27:10;100289.88;;;0.47;96.48
16690;BME280;8458;52.220;9.884;2023-01-20T02:30:10;100298.91;;;0.54;96.45
16690;BME280;8458;52.220;9.884;2023-01-20T02:32:47;100299.09;;;0.52;96.19
16690;BME280;8458;52.220;9.884;2023-01-20T02:35:22;100304.78;;;0.51;96.00
16690;BME280;8458;52.220;9.884;2023-01-20T02:37:58;100301.41;;;0.56;95.90
16690;BME280;8458;52.220;9.884;2023-01-20T02:40:29;100311.09;;;0.58;95.83
16690;BME280;8458;52.220;9.884;2023-01-20T02:43:02;100311.72;;;0.60;95.43
16690;BME280;8458;52.220;9.884;2023-01-20T02:45:35;100312.34;;;0.56;95.79
16690;BME280;8458;52.220;9.884;2023-01-20T02:48:11;100320.72;;;0.47;94.83
16690;BME280;8458;52.220;9.884;2023-01-20T02:50:47;100312.28;;;0.35;95.58
16690;BME280;8458;52.220;9.884;2023-01-20T02:53:16;100323.66;;;0.39;95.41
16690;BME280;8458;52.220;9.884;2023-01-20T02:55:45;100318.16;;;0.32;95.42
16690;BME280;8458;52.220;9.884;2023-01-20T02:58:17;100321.56;;;0.34;95.58
16690;BME280;8458;52.220;9.884;2023-01-20T03:00:48;100323.41;;;0.34;95.83
16690;BME280;8458;52.220;9.884;2023-01-20T03:03:21;100329.94;;;0.46;95.97
16690;BME280;8458;52.220;9.884;2023-01-20T03:05:53;100328.91;;;0.47;95.67
16690;BME280;8458;52.220;9.884;2023-01-20T03:08:23;100322.84;;;0.52;95.75
16690;BME280;8458;52.220;9.884;2023-01-20T03:10:53;100332.06;;;0.51;95.07
16690;BME280;8458;52.220;9.884;2023-01-20T03:13:25;100324.31;;;0.55;94.54
16690;BME280;8458;52.220;9.884;2023-01-20T03:15:57;100332.50;;;0.55;94.54
16690;BME280;8458;52.220;9.884;2023-01-20T03:18:27;100338.78;;;0.48;94.81
16690;BME280;8458;52.220;9.884;2023-01-20T03:20:54;100336.69;;;0.50;94.48
16690;BME280;8458;52.220;9.884;2023-01-20T03:23:21;100336.88;;;0.56;94.25
16690;BME280;8458;52.220;9.884;2023-01-20T03:25:49;100342.56;;;0.54;94.58
16690;BME280;8458;52.220;9.884;2023-01-20T03:28:16;100350.31;;;0.50;94.22
16690;BME280;8458;52.220;9.884;2023-01-20T03:30:42;100351.59;;;0.55;94.16
16690;BME280;8458;52.220;9.884;2023-01-20T03:33:09;100338.78;;;0.48;93.65
16690;BME280;8458;52.220;9.884;2023-01-20T03:35:38;100355.31;;;0.40;93.15
16690;BME280;8458;52.220;9.884;2023-01-20T03:38:05;100358.66;;;0.35;94.04
16690;BME280;8458;52.220;9.884;2023-01-20T03:40:37;100359.88;;;0.20;94.64
16690;BME280;8458;52.220;9.884;2023-01-20T03:43:11;100360.50;;;0.22;95.25
16690;BME280;8458;52.220;9.884;2023-01-20T03:45:41;100369.97;;;0.26;95.18
16690;BME280;8458;52.220;9.884;2023-01-20T03:48:15;100367.44;;;0.17;96.00
16690;BME280;8458;52.220;9.884;2023-01-20T03:50:48;100368.47;;;0.16;95.74
16690;BME280;8458;52.220;9.884;2023-01-20T03:53:26;100365.13;;;0.14;95.82
16690;BME280;8458;52.220;9.884;2023-01-20T03:55:59;100376.44;;;0.18;95.77
16690;BME280;8458;52.220;9.884;2023-01-20T03:58:31;100376.22;;;0.13;96.51
16690;BME280;8458;52.220;9.884;2023-01-20T04:01:02;100376.66;;;0.23;96.08
16690;BME280;8458;52.220;9.884;2023-01-20T04:03:32;100376.66;;;0.16;96.17
16690;BME280;8458;52.220;9.884;2023-01-20T04:06:04;100377.06;;;0.13;95.73
16690;BME280;8458;52.220;9.884;2023-01-20T04:08:33;100383.16;;;0.15;96.34
16690;BME280;8458;52.220;9.884;2023-01-20T04:11:03;100386.53;;;0.17;96.26
16690;BME280;8458;52.220;9.884;2023-01-20T04:13:30;100390.28;;;0.16;96.07
16690;BME280;8458;52.220;9.884;2023-01-20T04:15:57;100394.50;;;0.19;95.82
16690;BME280;8458;52.220;9.884;2023-01-20T04:18:24;100387.78;;;0.22;95.35
16690;BME280;8458;52.220;9.884;2023-01-20T04:20:55;100390.34;;;0.30;95.19
16690;BME280;8458;52.220;9.884;2023-01-20T04:23:27;100397.88;;;0.28;95.25
16690;BME280;8458;52.220;9.884;2023-01-20T04:25:55;100402.50;;;0.34;95.48
16690;BME280;8458;52.220;9.884;2023-01-20T04:28:21;100401.06;;;0.38;95.00
16690;BME280;8458;52.220;9.884;2023-01-20T04:30:48;100407.97;;;0.34;94.76
16690;BME280;8458;52.220;9.884;2023-01-20T04:33:14;100412.00;;;0.38;95.00
16690;BME280;8458;52.220;9.884;2023-01-20T04:35:41;100419.75;;;0.41;94.56
16690;BME280;8458;52.220;9.884;2023-01-20T04:38:07;100419.56;;;0.43;94.36
16690;BME280;8458;52.220;9.884;2023-01-20T04:40:35;100413.06;;;0.44;95.03
16690;BME280;8458;52.220;9.884;2023-01-20T04:43:02;100423.13;;;0.43;94.49
16690;BME280;8458;52.220;9.884;2023-01-20T04:45:29;100422.72;;;0.46;94.54
16690;BME280;8458;52.220;9.884;2023-01-20T04:47:55;100427.94;;;0.41;94.36
16690;BME280;8458;52.220;9.884;2023-01-20T04:50:21;100423.31;;;0.35;94.27
16690;BME280;8458;52.220;9.884;2023-01-20T04:52:48;100420.56;;;0.35;93.57
16690;BME280;8458;52.220;9.884;2023-01-20T04:55:14;100423.94;;;0.37;93.39
16690;BME280;8458;52.220;9.884;2023-01-20T04:57:42;100421.81;;;0.32;93.42
16690;BME280;8458;52.220;9.884;2023-01-20T05:00:10;100419.09;;;0.32;93.25
16690;BME280;8458;52.220;9.884;2023-01-20T05:02:42;100418.69;;;0.35;93.47
16690;BME280;8458;52.220;9.884;2023-01-20T05:05:09;100416.81;;;0.36;93.47
16690;BME280;8458;52.220;9.884;2023-01-20T05:07:35;100428.34;;;0.38;93.55
16690;BME280;8458;52.220;9.884;2023-01-20T05:10:02;100426.03;;;0.42;93.38
16690;BME280;8458;52.220;9.884;2023-01-20T05:12:28;100427.34;;;0.46;93.56
16690;BME280;8458;52.220;9.884;2023-01-20T05:14:56;100428.38;;;0.45;93.65
16690;BME280;8458;52.220;9.884;2023-01-20T05:17:23;100433.00;;;0.44;93.51
16690;BME280;8458;52.220;9.884;2023-01-20T05:19:49;100435.72;;;0.44;93.36
16690;BME280;8458;52.220;9.884;2023-01-20T05:22:16;100439.06;;;0.46;92.54
16690;BME280;8458;52.220;9.884;2023-01-20T05:24:42;100430.69;;;0.48;91.97
16690;BME280;8458;52.220;9.884;2023-01-20T05:27:09;100442.22;;;0.43;92.08
16690;BME280;8458;52.220;9.884;2023-01-20T05:29:35;100439.47;;;0.43;91.32
16690;BME280;8458;52.220;9.884;2023-01-20T05:32:03;100444.09;;;0.36;91.62
16690;BME280;8458;52.220;9.884;2023-01-20T05:34:30;100443.22;;;0.35;91.61
16690;BME280;8458;52.220;9.884;2023-01-20T05:36:56;100442.00;;;0.38;91.77
16690;BME280;8458;52.220;9.884;2023-01-20T05:39:23;100452.47;;;0.34;91.76
16690;BME280;8458;52.220;9.884;2023-01-20T05:41:49;100450.59;;;0.35;91.85
16690;BME280;8458;52.220;9.884;2023-01-20T05:44:16;100459.41;;;0.37;91.92
16690;BME280;8458;52.220;9.884;2023-01-20T05:46:42;100464.44;;;0.40;91.46
16690;BME280;8458;52.220;9.884;2023-01-20T05:49:11;100464.03;;;0.37;92.18
16690;BME280;8458;52.220;9.884;2023-01-20T05:51:37;100466.53;;;0.38;91.77
16690;BME280;8458;52.220;9.884;2023-01-20T05:54:04;100474.91;;;0.30;92.10
16690;BME280;8458;52.220;9.884;2023-01-20T05:56:30;100467.56;;;0.30;91.97
16690;BME280;8458;52.220;9.884;2023-01-20T05:58:57;100467.53;;;0.24;92.25
16690;BME280;8458;52.220;9.884;2023-01-20T06:01:23;100472.19;;;0.30;92.09
16690;BME280;8458;52.220;9.884;2023-01-20T06:03:50;100475.97;;;0.35;92.40
16690;BME280;8458;52.220;9.884;2023-01-20T06:06:17;100472.00;;;0.38;91.62
16690;BME280;8458;52.220;9.884;2023-01-20T06:08:44;100473.44;;;0.34;91.40
16690;BME280;8458;52.220;9.884;2023-01-20T06:11:11;100475.56;;;0.39;91.76
16690;BME280;8458;52.220;9.884;2023-01-20T06:13:39;100474.72;;;0.38;91.64
16690;BME280;8458;52.220;9.884;2023-01-20T06:16:05;100489.47;;;0.44;91.93
16690;BME280;8458;52.220;9.884;2023-01-20T06:18:32;100496.38;;;0.46;91.24
16690;BME280;8458;52.220;9.884;2023-01-20T06:20:59;100498.06;;;0.47;91.41
16690;BME280;8458;52.220;9.884;2023-01-20T06:23:27;100507.09;;;0.48;91.13
16690;BME280;8458;52.220;9.884;2023-01-20T06:25:58;100513.81;;;0.45;90.96
16690;BME280;8458;52.220;9.884;2023-01-20T06:28:24;100517.56;;;0.44;91.56
16690;BME280;8458;52.220;9.884;2023-01-20T06:30:57;100518.59;;;0.43;90.87
16690;BME280;8458;52.220;9.884;2023-01-20T06:33:24;100515.03;;;0.43;90.99
16690;BME280;8458;52.220;9.884;2023-01-20T06:35:52;100512.53;;;0.41;90.01
16690;BME280;8458;52.220;9.884;2023-01-20T06:38:18;100515.25;;;0.41;90.51
16690;BME280;8458;52.220;9.884;2023-01-20T06:40:46;100527.59;;;0.37;90.20
16690;BME280;8458;52.220;9.884;2023-01-20T06:43:13;100533.44;;;0.27;90.04
16690;BME280;8458;52.220;9.884;2023-01-20T06:45:39;100540.97;;;0.25;90.83
16690;BME280;8458;52.220;9.884;2023-01-20T06:48:06;100540.97;;;0.25;91.01
16690;BME280;8458;52.220;9.884;2023-01-20T06:50:32;100550.78;;;0.20;90.66
16690;BME280;8458;52.220;9.884;2023-01-20T06:52:58;100547.22;;;0.19;91.23
16690;BME280;8458;52.220;9.884;2023-01-20T06:55:25;100542.19;;;0.16;91.14
16690;BME280;8458;52.220;9.884;2023-01-20T06:57:54;100539.25;;;0.17;91.08
16690;BME280;8458;52.220;9.884;2023-01-20T07:00:22;100546.38;;;0.18;91.07
16690;BME280;8458;52.220;9.884;2023-01-20T07:02:48;100546.75;;;0.15;91.51
16690;BME280;8458;52.220;9.884;2023-01-20T07:05:15;100553.03;;;0.09;91.58
16690;BME280;8458;52.220;9.884;2023-01-20T07:07:42;100554.25;;;0.00;92.11
16690;BME280;8458;52.220;9.884;2023-01-20T07:10:10;100567.25;;;0.05;92.25
16690;BME280;8458;52.220;9.884;2023-01-20T07:12:36;100561.88;;;0.11;92.33
16690;BME280;8458;52.220;9.884;2023-01-20T07:15:05;100572.38;;;0.14;92.40
16690;BME280;8458;52.220;9.884;2023-01-20T07:17:32;100573.63;;;0.18;92.29
16690;BME280;8458;52.220;9.884;2023-01-20T07:19:59;100577.44;;;0.17;92.42
16690;BME280;8458;52.220;9.884;2023-01-20T07:22:25;100584.53;;;0.18;92.00
16690;BME280;8458;52.220;9.884;2023-01-20T07:24:52;100591.69;;;0.20;92.44
16690;BME280;8458;52.220;9.884;2023-01-20T07:27:18;100593.78;;;0.17;91.57
16690;BME280;8458;52.220;9.884;2023-01-20T07:29:44;100592.09;;;0.16;92.17
16690;BME280;8458;52.220;9.884;2023-01-20T07:32:12;100599.25;;;0.17;91.85
16690;BME280;8458;52.220;9.884;2023-01-20T07:34:39;100607.22;;;0.19;91.31
16690;BME280;8458;52.220;9.884;2023-01-20T07:37:05;100611.81;;;0.18;91.32
16690;BME280;8458;52.220;9.884;2023-01-20T07:39:32;100617.94;;;0.21;90.90
16690;BME280;8458;52.220;9.884;2023-01-20T07:42:00;100616.44;;;0.18;90.37
16690;BME280;8458;52.220;9.884;2023-01-20T07:44:26;100616.09;;;0.28;91.47
16690;BME280;8458;52.220;9.884;2023-01-20T07:46:53;100621.94;;;0.25;92.51
16690;BME280;8458;52.220;9.884;2023-01-20T07:49:21;100616.47;;;0.25;91.82
16690;BME280;8458;52.220;9.884;2023-01-20T07:51:47;100623.00;;;0.24;91.01
16690;BME280;8458;52.220;9.884;2023-01-20T07:54:13;100630.81;;;0.05;89.76
16690;BME280;8458;52.220;9.884;2023-01-20T07:56:40;100630.97;;;-0.03;89.63
16690;BME280;8458;52.220;9.884;2023-01-20T07:59:06;100629.53;;;-0.21;88.88
16690;BME280;8458;52.220;9.884;2023-01-20T08:01:33;100635.19;;;-0.44;89.92
16690;BME280;8458;52.220;9.884;2023-01-20T08:03:59;100635.56;;;-0.47;89.68
16690;BME280;8458;52.220;9.884;2023-01-20T08:06:28;100644.31;;;-0.51;90.24
16690;BME280;8458;52.220;9.884;2023-01-20T08:08:55;100642.91;;;-0.47;90.32
16690;BME280;8458;52.220;9.884;2023-01-20T08:11:24;100642.16;;;-0.56;90.81
16690;BME280;8458;52.220;9.884;2023-01-20T08:13:52;100647.72;;;-0.49;91.64
16690;BME280;8458;52.220;9.884;2023-01-20T08:16:19;100645.63;;;-0.47;91.12
16690;BME280;8458;52.220;9.884;2023-01-20T08:18:46;100658.72;;;-0.36;91.28
16690;BME280;8458;52.220;9.884;2023-01-20T08:21:17;100656.53;;;-0.26;91.88
16690;BME280;8458;52.220;9.884;2023-01-20T08:23:45;100659.81;;;-0.15;92.39
16690;BME280;8458;52.220;9.884;2023-01-20T08:26:12;100656.69;;;-0.12;92.84
16690;BME280;8458;52.220;9.884;2023-01-20T08:28:39;100664.91;;;-0.06;92.48
16690;BME280;8458;52.220;9.884;2023-01-20T08:31:06;100675.03;;;0.01;92.74
16690;BME280;8458;52.220;9.884;2023-01-20T08:33:33;100671.66;;;-0.02;93.58
16690;BME280;8458;52.220;9.884;2023-01-20T08:36:05;100684.69;;;0.03;93.30
16690;BME280;8458;52.220;9.884;2023-01-20T08:38:32;100680.09;;;0.04;93.18
16690;BME280;8458;52.220;9.884;2023-01-20T08:41:01;100685.34;;;0.05;93.51
16690;BME280;8458;52.220;9.884;2023-01-20T08:43:27;100685.84;;;0.15;93.18
16690;BME280;8458;52.220;9.884;2023-01-20T08:45:58;100687.16;;;0.20;92.67
16690;BME280;8458;52.220;9.884;2023-01-20T08:48:25;100693.25;;;0.22;93.28
16690;BME280;8458;52.220;9.884;2023-01-20T08:50:51;100694.16;;;0.29;93.11
16690;BME280;8458;52.220;9.884;2023-01-20T08:53:18;100695.84;;;0.30;94.25
16690;BME280;8458;52.220;9.884;2023-01-20T08:55:53;100700.91;;;0.33;94.10
16690;BME280;8458;52.220;9.884;2023-01-20T08:58:21;100698.44;;;0.38;94.07
16690;BME280;8458;52.220;9.884;2023-01-20T09:00:47;100701.16;;;0.38;94.42
16690;BME280;8458;52.220;9.884;2023-01-20T09:03:14;100703.66;;;0.33;94.00
16690;BME280;8458;52.220;9.884;2023-01-20T09:05:41;100708.03;;;0.34;93.63
16690;BME280;8458;52.220;9.884;2023-01-20T09:08:07;100715.44;;;0.40;93.40
16690;BME280;8458;52.220;9.884;2023-01-20T09:10:34;100709.75;;;0.35;93.48
16690;BME280;8458;52.220;9.884;2023-01-20T09:13:00;100718.38;;;0.39;93.46
16690;BME280;8458;52.220;9.884;2023-01-20T09:15:28;100717.13;;;0.41;93.89
16690;BME280;8458;52.220;9.884;2023-01-20T09:17:55;100715.31;;;0.48;93.57
16690;BME280;8458;52.220;9.884;2023-01-20T09:20:22;100716.19;;;0.56;93.28
16690;BME280;8458;52.220;9.884;2023-01-20T09:22:50;100720.47;;;0.65;93.53
16690;BME280;8458;52.220;9.884;2023-01-20T09:25:17;100728.56;;;0.80;93.29
16690;BME280;8458;52.220;9.884;2023-01-20T09:27:44;100730.94;;;0.89;93.02
16690;BME280;8458;52.220;9.884;2023-01-20T09:30:11;100729.50;;;0.94;93.08
16690;BME280;8458;52.220;9.884;2023-01-20T09:32:39;100739.38;;;0.95;93.42
16690;BME280;8458;52.220;9.884;2023-01-20T09:35:06;100734.16;;;1.00;93.53
16690;BME280;8458;52.220;9.884;2023-01-20T09:37:33;100734.16;;;1.00;93.67
16690;BME280;8458;52.220;9.884;2023-01-20T09:40:19;100735.44;;;1.04;94.21
16690;BME280;8458;52.220;9.884;2023-01-20T09:43:23;100741.38;;;1.14;94.45
16690;BME280;8458;52.220;9.884;2023-01-20T09:46:14;100736.63;;;1.30;94.58
16690;BME280;8458;52.220;9.884;2023-01-20T09:48:52;100738.56;;;1.36;94.07
16690;BME280;8458;52.220;9.884;2023-01-20T09:51:45;100742.78;;;1.45;92.68
16690;BME280;8458;52.220;9.884;2023-01-20T09:54:36;100745.34;;;1.53;92.09
16690;BME280;8458;52.220;9.884;2023-01-20T09:57:05;100749.56;;;1.49;92.20
16690;BME280;8458;52.220;9.884;2023-01-20T09:59:36;100751.88;;;1.52;91.90
16690;BME280;8458;52.220;9.884;2023-01-20T10:02:12;100749.78;;;1.61;91.28
16690;BME280;8458;52.220;9.884;2023-01-20T10:04:46;100752.09;;;1.57;90.87
16690;BME280;8458;52.220;9.884;2023-01-20T10:07:19;100751.69;;;1.54;90.25
16690;BME280;8458;52.220;9.884;2023-01-20T10:09:54;100755.44;;;1.53;89.78
16690;BME280;8458;52.220;9.884;2023-01-20T10:12:26;100755.50;;;1.66;89.74
16690;BME280;8458;52.220;9.884;2023-01-20T10:15:00;100762.50;;;1.75;89.37
16690;BME280;8458;52.220;9.884;2023-01-20T10:17:34;100756.41;;;1.80;88.81
16690;BME280;8458;52.220;9.884;2023-01-20T10:20:07;100766.06;;;1.83;88.30
16690;BME280;8458;52.220;9.884;2023-01-20T10:22:39;100760.41;;;1.84;88.37
16690;BME280;8458;52.220;9.884;2023-01-20T10:25:12;100766.75;;;1.91;87.64
16690;BME280;8458;52.220;9.884;2023-01-20T10:27:45;100756.00;;;1.96;87.61
16690;BME280;8458;52.220;9.884;2023-01-20T10:30:16;100773.31;;;2.04;87.21
16690;BME280;8458;52.220;9.884;2023-01-20T10:32:47;100767.81;;;2.04;86.83
16690;BME280;8458;52.220;9.884;2023-01-20T10:35:21;100770.38;;;2.12;86.52
16690;BME280;8458;52.220;9.884;2023-01-20T10:37:48;100765.75;;;2.19;86.15
16690;BME280;8458;52.220;9.884;2023-01-20T10:40:31;100769.53;;;2.18;86.01
16690;BME280;8458;52.220;9.884;2023-01-20T10:43:03;100767.47;;;2.20;85.93
16690;BME280;8458;52.220;9.884;2023-01-20T10:45:37;100776.75;;;2.32;85.11
16690;BME280;8458;52.220;9.884;2023-01-20T10:48:16;100771.47;;;2.38;84.02
16690;BME280;8458;52.220;9.884;2023-01-20T10:50:54;100782.00;;;2.41;83.66
16690;BME280;8458;52.220;9.884;2023-01-20T10:53:32;100774.84;;;2.40;82.84
16690;BME280;8458;52.220;9.884;2023-01-20T10:56:09;100781.78;;;2.49;82.45
16690;BME280;8458;52.220;9.884;2023-01-20T10:58:40;100783.50;;;2.50;82.00
16690;BME280;8458;52.220;9.884;2023-01-20T11:01:13;100792.34;;;2.45;82.38
16690;BME280;8458;52.220;9.884;2023-01-20T11:03:42;100786.84;;;2.52;82.25
16690;BME280;8458;52.220;9.884;2023-01-20T11:06:17;100791.72;;;2.50;83.49
16690;BME280;8458;52.220;9.884;2023-01-20T11:08:44;100792.56;;;2.57;82.40
16690;BME280;8458;52.220;9.884;2023-01-20T11:11:14;100802.66;;;2.50;83.15
16690;BME280;8458;52.220;9.884;2023-01-20T11:13:41;100798.66;;;2.66;82.46
16690;BME280;8458;52.220;9.884;2023-01-20T11:16:12;100792.78;;;2.62;81.87
16690;BME280;8458;52.220;9.884;2023-01-20T11:18:41;100800.16;;;2.68;81.60
16690;BME280;8458;52.220;9.884;2023-01-20T11:21:08;100803.72;;;2.69;81.54
16690;BME280;8458;52.220;9.884;2023-01-20T11:23:40;100796.56;;;2.75;81.47
16690;BME280;8458;52.220;9.884;2023-01-20T11:26:16;100802.88;;;2.82;80.62
16690;BME280;8458;52.220;9.884;2023-01-20T11:28:47;100809.41;;;2.87;80.55
16690;BME280;8458;52.220;9.884;2023-01-20T11:31:15;100818.06;;;2.78;79.85
16690;BME280;8458;52.220;9.884;2023-01-20T11:33:54;100817.63;;;2.87;80.05
16690;BME280;8458;52.220;9.884;2023-01-20T11:36:21;100818.25;;;2.83;80.25
16690;BME280;8458;52.220;9.884;2023-01-20T11:38:52;100827.75;;;2.87;80.04
16690;BME280;8458;52.220;9.884;2023-01-20T11:41:19;100827.75;;;2.87;80.20
16690;BME280;8458;52.220;9.884;2023-01-20T11:43:48;100829.44;;;2.95;80.34
16690;BME280;8458;52.220;9.884;2023-01-20T11:46:24;100837.22;;;2.91;80.31
16690;BME280;8458;52.220;9.884;2023-01-20T11:49:14;100831.53;;;2.93;80.88
16690;BME280;8458;52.220;9.884;2023-01-20T11:51:47;100832.81;;;2.97;80.41
16690;BME280;8458;52.220;9.884;2023-01-20T11:54:17;100834.50;;;2.98;80.16
16690;BME280;8458;52.220;9.884;2023-01-20T11:56:46;100839.13;;;2.97;80.59
16690;BME280;8458;52.220;9.884;2023-01-20T11:59:20;100837.03;;;2.99;80.83
16690;BME280;8458;52.220;9.884;2023-01-20T12:01:50;100842.50;;;2.99;80.95
16690;BME280;8458;52.220;9.884;2023-01-20T12:04:25;100844.19;;;2.94;80.05
16690;BME280;8458;52.220;9.884;2023-01-20T12:06:59;100846.50;;;2.90;79.50
16690;BME280;8458;52.220;9.884;2023-01-20T12:09:33;100855.56;;;2.91;80.10
16690;BME280;8458;52.220;9.884;2023-01-20T12:12:05;100847.56;;;2.89;80.16
16690;BME280;8458;52.220;9.884;2023-01-20T12:14:37;100853.44;;;2.86;80.02
16690;BME280;8458;52.220;9.884;2023-01-20T12:17:14;100856.81;;;2.81;80.24
16690;BME280;8458;52.220;9.884;2023-01-20T12:19:55;100858.72;;;2.81;80.24
16690;BME280;8458;52.220;9.884;2023-01-20T12:22:24;100857.66;;;2.82;81.19
16690;BME280;8458;52.220;9.884;2023-01-20T12:24:56;100861.47;;;2.87;80.65
16690;BME280;8458;52.220;9.884;2023-01-20T12:27:33;100868.19;;;2.85;79.62
16690;BME280;8458;52.220;9.884;2023-01-20T12:30:02;100867.75;;;2.88;79.76
16690;BME280;8458;52.220;9.884;2023-01-20T12:32:30;100867.13;;;2.93;79.20
16690;BME280;8458;52.220;9.884;2023-01-20T12:34:57;100874.09;;;2.89;78.79
16690;BME280;8458;52.220;9.884;2023-01-20T12:37:28;100866.94;;;2.87;78.15
16690;BME280;8458;52.220;9.884;2023-01-20T12:40:16;100872.00;;;2.84;78.42
16690;BME280;8458;52.220;9.884;2023-01-20T12:43:15;100868.59;;;2.82;78.79
16690;BME280;8458;52.220;9.884;2023-01-20T12:45:54;100872.41;;;2.81;79.07
16690;BME280;8458;52.220;9.884;2023-01-20T12:48:33;100871.56;;;2.87;79.17
16690;BME280;8458;52.220;9.884;2023-01-20T12:51:14;100876.81;;;2.82;78.87
16690;BME280;8458;52.220;9.884;2023-01-20T12:53:58;100868.19;;;2.85;78.81
16690;BME280;8458;52.220;9.884;2023-01-20T12:56:37;100879.13;;;2.78;79.16
16690;BME280;8458;52.220;9.884;2023-01-20T12:59:13;100882.50;;;2.74;79.50
16690;BME280;8458;52.220;9.884;2023-01-20T13:02:02;100887.16;;;2.80;79.40
16690;BME280;8458;52.220;9.884;2023-01-20T13:04:51;100879.97;;;2.79;79.49
16690;BME280;8458;52.220;9.884;2023-01-20T13:07:34;100882.09;;;2.77;79.65
16690;BME280;8458;52.220;9.884;2023-01-20T13:10:15;100887.56;;;2.83;79.93
16690;BME280;8458;52.220;9.884;2023-01-20T13:12:53;100889.69;;;2.88;79.34
16690;BME280;8458;52.220;9.884;2023-01-20T13:15:26;100890.53;;;2.95;79.56
16690;BME280;8458;52.220;9.884;2023-01-20T13:18:17;100883.38;;;3.08;78.84
16690;BME280;8458;52.220;9.884;2023-01-20T13:20:47;100896.00;;;3.02;78.93
16690;BME280;8458;52.220;9.884;2023-01-20T13:23:15;100896.03;;;3.09;78.77
16690;BME280;8458;52.220;9.884;2023-01-20T13:25:44;100898.97;;;3.14;77.98